Time;durP1;ratioP1;P1;durP2;ratioP2;P2;SDS_P1;SDS_P2;PMS_P1;PMS_P2;Temp;Humidity;BMP_temperature;BMP_pressure;BME280_temperature;BME280_humidity;BME280_pressure;Samples;Min_cycle;Max_cycle;Signal;HPM_P1;HPM_P2
2021/09/06 00:01:41;;;;;;;3.47;2.25;;;486.80;1740.80;;;;;;4915371;29;20041;-77
2021/09/06 00:04:07;;;;;;;5.63;2.60;;;486.80;1740.80;;;;;;4915506;29;20043;-92
2021/09/06 00:06:37;;;;;;;4.70;2.20;;;486.70;1766.40;;;;;;4915653;29;20115;-91
2021/09/06 00:09:03;;;;;;;3.90;2.08;;;486.70;1766.40;;;;;;4915495;29;20032;-90
2021/09/06 00:11:29;;;;;;;4.90;2.40;;;486.70;1792.00;;;;;;4915371;29;20151;-91
2021/09/06 00:13:57;;;;;;;5.28;2.35;;;486.70;1792.00;;;;;;4915435;29;20040;-91
2021/09/06 00:16:23;;;;;;;9.38;2.33;;;486.60;1792.00;;;;;;4918033;29;20059;-81
2021/09/06 00:18:49;;;;;;;4.93;2.40;;;486.70;1766.40;;;;;;4919098;29;20440;-91
2021/09/06 00:21:15;;;;;;;6.68;2.08;;;486.50;1817.60;;;;;;4919057;29;20151;-76
2021/09/06 00:23:41;;;;;;;6.65;2.20;;;486.40;1868.80;;;;;;4903131;29;20534;-91
2021/09/06 00:26:07;;;;;;;7.55;2.17;;;461.60;1894.40;;;;;;4920525;29;20191;-89
2021/09/06 00:28:33;;;;;;;3.90;1.90;;;461.60;1894.40;;;;;;4919894;29;20028;-91
2021/09/06 00:30:59;;;;;;;5.30;2.63;;;461.60;1920.00;;;;;;4918304;29;20036;-92
2021/09/06 00:33:24;;;;;;;3.58;2.33;;;461.50;1894.40;;;;;;4919513;29;20103;-91
2021/09/06 00:35:50;;;;;;;3.92;2.10;;;486.40;1868.80;;;;;;4918870;29;20032;-77
2021/09/06 00:38:17;;;;;;;5.03;2.03;;;461.70;1868.80;;;;;;4919539;29;20024;-89
2021/09/06 00:40:47;;;;;;;7.43;2.70;;;486.40;1868.80;;;;;;4917904;29;20387;-83
2021/09/06 00:43:14;;;;;;;5.15;2.60;;;486.40;1868.80;;;;;;4919334;29;20036;-89
2021/09/06 00:45:40;;;;;;;6.85;2.13;;;486.50;1817.60;;;;;;4919131;29;20032;-89
2021/09/06 00:48:07;;;;;;;4.53;2.13;;;486.70;1792.00;;;;;;4919523;29;20035;-90
2021/09/06 00:50:33;;;;;;;7.80;2.47;;;486.50;1817.60;;;;;;4919551;29;20028;-77
2021/09/06 00:53:00;;;;;;;4.45;1.92;;;486.70;1792.00;;;;;;4918524;29;20036;-77
2021/09/06 00:55:27;;;;;;;3.35;2.00;;;486.80;1792.00;;;;;;4918335;29;20038;-85
2021/09/06 00:57:53;;;;;;;5.43;2.33;;;486.70;1766.40;;;;;;4917685;29;20032;-92
2021/09/06 01:00:19;;;;;;;4.45;2.03;;;486.80;1766.40;;;;;;4902415;29;20047;-92
2021/09/06 01:02:45;;;;;;;4.70;2.60;;;486.80;1766.40;;;;;;4917605;29;20028;-77
2021/09/06 01:05:13;;;;;;;6.25;2.30;;;486.80;1766.40;;;;;;4919329;29;20060;-77
2021/09/06 01:07:39;;;;;;;5.93;2.35;;;486.80;1766.40;;;;;;4917675;29;20087;-86
2021/09/06 01:10:08;;;;;;;4.78;2.53;;;486.70;1792.00;;;;;;4919179;29;20034;-89
2021/09/06 01:12:34;;;;;;;5.05;2.13;;;486.70;1766.40;;;;;;4918783;29;20062;-86
2021/09/06 01:15:00;;;;;;;4.05;2.00;;;486.80;1766.40;;;;;;4918631;29;20046;-86
2021/09/06 01:17:27;;;;;;;5.07;2.45;;;486.70;1766.40;;;;;;4902404;29;20448;-79
2021/09/06 01:19:53;;;;;;;5.22;2.38;;;486.70;1766.40;;;;;;4902293;29;22011;-78
2021/09/06 01:22:19;;;;;;;3.80;2.30;;;486.70;1792.00;;;;;;4917757;29;20110;-77
2021/09/06 01:24:46;;;;;;;5.60;2.45;;;486.80;1792.00;;;;;;4902018;29;20036;-90
2021/09/06 01:27:13;;;;;;;4.70;2.25;;;486.70;1792.00;;;;;;4918037;29;20535;-93
2021/09/06 01:29:39;;;;;;;4.10;2.10;;;486.70;1792.00;;;;;;4901741;29;20033;-91
2021/09/06 01:32:06;;;;;;;3.83;2.08;;;486.60;1817.60;;;;;;4918889;29;20032;-89
2021/09/06 01:34:32;;;;;;;4.20;2.00;;;486.70;1792.00;;;;;;4918533;29;20065;-77
2021/09/06 01:36:58;;;;;;;7.00;2.80;;;486.60;1817.60;;;;;;4934996;29;20131;-90
2021/09/06 01:39:24;;;;;;;3.67;2.03;;;486.70;1792.00;;;;;;4937796;29;20039;-89
2021/09/06 01:41:49;;;;;;;5.32;2.65;;;486.60;1792.00;;;;;;4920880;29;20043;-88
2021/09/06 01:44:15;;;;;;;6.63;2.20;;;486.60;1792.00;;;;;;4936574;29;20028;-89
2021/09/06 01:46:41;;;;;;;4.85;2.15;;;486.50;1792.00;;;;;;4926171;29;20032;-77
2021/09/06 01:49:07;;;;;;;5.10;2.05;;;486.50;1817.60;;;;;;4900836;29;20036;-85
2021/09/06 01:51:33;;;;;;;7.65;2.38;;;486.50;1817.60;;;;;;4917076;29;20040;-89
2021/09/06 01:53:59;;;;;;;5.63;2.25;;;486.50;1817.60;;;;;;4936799;29;20035;-91
2021/09/06 01:56:24;;;;;;;7.70;2.22;;;486.40;1817.60;;;;;;4920393;29;20383;-89
2021/09/06 01:58:50;;;;;;;4.45;2.47;;;486.50;1817.60;;;;;;4908710;29;20032;-89
2021/09/06 02:01:16;;;;;;;8.63;2.22;;;486.40;1843.20;;;;;;4917991;29;20055;-90
2021/09/06 02:03:42;;;;;;;7.22;2.20;;;486.40;1843.20;;;;;;4912980;29;20055;-91
2021/09/06 02:06:09;;;;;;;6.18;2.58;;;486.50;1843.20;;;;;;4901142;29;20079;-86
2021/09/06 02:08:34;;;;;;;7.45;2.72;;;486.40;1843.20;;;;;;4901720;29;20036;-89
2021/09/06 02:11:00;;;;;;;4.55;2.15;;;461.60;1843.20;;;;;;4918474;29;20064;-85
2021/09/06 02:13:26;;;;;;;5.40;2.20;;;461.60;1868.80;;;;;;4920069;29;20798;-85
2021/09/06 02:15:52;;;;;;;5.03;2.10;;;461.50;1868.80;;;;;;4941164;29;20016;-76
2021/09/06 02:18:18;;;;;;;3.95;2.25;;;461.50;1868.80;;;;;;4933504;29;20513;-77
2021/09/06 02:20:44;;;;;;;5.32;2.28;;;461.50;1894.40;;;;;;4930195;29;20036;-91
2021/09/06 02:23:10;;;;;;;8.02;2.47;;;461.50;1894.40;;;;;;4935664;29;20047;-89
2021/09/06 02:25:36;;;;;;;7.22;2.13;;;461.40;1894.40;;;;;;4920020;29;20114;-89
2021/09/06 02:28:03;;;;;;;4.05;2.42;;;461.20;1920.00;;;;;;4936704;29;20102;-91
2021/09/06 02:30:28;;;;;;;6.93;2.25;;;461.20;1920.00;;;;;;4936734;29;20098;-91
2021/09/06 02:32:54;;;;;;;7.55;2.15;;;461.10;1945.60;;;;;;4936551;29;20482;-81
2021/09/06 02:35:20;;;;;;;5.20;2.72;;;461.20;1945.60;;;;;;4936694;29;20492;-81
2021/09/06 02:37:46;;;;;;;5.63;2.53;;;461.10;1920.00;;;;;;4919835;29;20032;-78
2021/09/06 02:40:13;;;;;;;7.22;2.30;;;461.00;1945.60;;;;;;4918890;29;20478;-77
2021/09/06 02:42:39;;;;;;;5.38;2.60;;;461.00;1945.60;;;;;;4919491;29;20035;-88
2021/09/06 02:45:06;;;;;;;4.28;2.25;;;460.90;1971.20;;;;;;4919437;29;20378;-91
2021/09/06 02:47:31;;;;;;;5.07;2.40;;;460.90;1971.20;;;;;;4919687;29;20046;-83
2021/09/06 02:49:58;;;;;;;14.88;2.65;;;460.90;1971.20;;;;;;4936322;29;20024;-87
2021/09/06 02:52:25;;;;;;;5.22;2.45;;;460.90;1971.20;;;;;;4916084;29;20053;-91
2021/09/06 02:54:50;;;;;;;5.20;2.28;;;460.80;1971.20;;;;;;4910131;29;20083;-90
2021/09/06 02:57:17;;;;;;;6.00;2.25;;;460.80;1971.20;;;;;;4936685;29;20430;-91
2021/09/06 02:59:43;;;;;;;5.63;2.15;;;460.80;1971.20;;;;;;4919229;29;20054;-91
2021/09/06 03:02:08;;;;;;;7.45;2.60;;;460.80;1971.20;;;;;;4919245;29;20032;-90
2021/09/06 03:04:34;;;;;;;6.53;2.40;;;460.80;1971.20;;;;;;4919347;29;20024;-92
2021/09/06 03:07:00;;;;;;;6.82;2.25;;;460.80;1971.20;;;;;;4936236;29;20458;-92
2021/09/06 03:09:26;;;;;;;5.85;2.35;;;436.10;1971.20;;;;;;4936223;29;20106;-79
2021/09/06 03:11:52;;;;;;;6.22;2.40;;;436.00;1971.20;;;;;;4935709;29;20054;-78
2021/09/06 03:14:17;;;;;;;4.70;2.45;;;435.90;1996.80;;;;;;4935710;29;20028;-78
2021/09/06 03:16:43;;;;;;;5.03;2.40;;;435.90;1996.80;;;;;;4919057;29;20089;-91
2021/09/06 03:19:09;;;;;;;8.75;2.75;;;435.90;1996.80;;;;;;4926146;29;20031;-94
2021/09/06 03:21:35;;;;;;;8.77;3.00;;;435.90;1996.80;;;;;;4901870;29;20063;-94
2021/09/06 03:24:01;;;;;;;7.35;2.53;;;435.90;1996.80;;;;;;4935740;29;20078;-80
2021/09/06 03:26:26;;;;;;;7.75;2.80;;;435.80;1996.80;;;;;;4935389;29;20039;-92
2021/09/06 03:28:52;;;;;;;5.30;2.53;;;435.80;2022.40;;;;;;4918822;29;20366;-79
2021/09/06 03:31:18;;;;;;;3.97;2.25;;;435.80;2022.40;;;;;;4935320;29;20055;-78
2021/09/06 03:33:43;;;;;;;7.03;2.50;;;435.60;2022.40;;;;;;4918594;29;20405;-86
2021/09/06 03:36:09;;;;;;;8.85;2.38;;;435.70;2022.40;;;;;;4908594;29;20043;-93
2021/09/06 03:38:35;;;;;;;7.28;2.40;;;435.70;2022.40;;;;;;4914898;29;20035;-77
2021/09/06 03:41:01;;;;;;;13.93;2.85;;;435.80;2022.40;;;;;;4918699;29;20031;-94
2021/09/06 03:43:27;;;;;;;8.48;3.05;;;435.70;2022.40;;;;;;4934219;29;20478;-87
2021/09/06 03:45:53;;;;;;;5.43;2.60;;;435.70;2022.40;;;;;;4935514;29;20024;-93
2021/09/06 03:48:19;;;;;;;6.05;2.78;;;435.70;2048.00;;;;;;4906698;29;20028;-78
2021/09/06 03:50:45;;;;;;;6.07;2.58;;;435.70;2048.00;;;;;;4933948;29;20031;-93
2021/09/06 03:53:12;;;;;;;7.75;2.70;;;435.70;2048.00;;;;;;4918659;29;20070;-90
2021/09/06 03:55:38;;;;;;;9.35;2.80;;;435.70;2048.00;;;;;;4933070;29;20027;-78
2021/09/06 03:58:04;;;;;;;9.85;3.17;;;435.60;2073.60;;;;;;4925045;29;20094;-88
2021/09/06 04:00:30;;;;;;;9.73;2.40;;;435.60;2048.00;;;;;;4935370;29;20114;-93
2021/09/06 04:02:56;;;;;;;3.85;2.33;;;435.40;2099.20;;;;;;4918768;29;20131;-77
2021/09/06 04:05:22;;;;;;;8.68;3.42;;;435.50;2073.60;;;;;;4918421;29;20569;-77
2021/09/06 04:07:47;;;;;;;7.43;2.83;;;435.50;2073.60;;;;;;4934150;29;20024;-94
2021/09/06 04:10:14;;;;;;;6.18;2.65;;;435.40;2099.20;;;;;;4935024;29;20062;-92
2021/09/06 04:12:40;;;;;;;4.10;2.65;;;435.40;2099.20;;;;;;4935305;29;20040;-78
2021/09/06 04:15:09;;;;;;;6.00;3.22;;;435.40;2099.20;;;;;;4934925;29;20023;-94
2021/09/06 04:17:36;;;;;;;5.38;2.45;;;435.40;2099.20;;;;;;4918432;29;20043;-84
2021/09/06 04:20:03;;;;;;;6.05;2.95;;;435.40;2099.20;;;;;;4904942;29;20096;-92
2021/09/06 04:22:29;;;;;;;10.70;2.63;;;435.40;2099.20;;;;;;4935419;29;20067;-93
2021/09/06 04:24:54;;;;;;;8.70;3.47;;;435.40;2099.20;;;;;;4904778;29;20474;-90
2021/09/06 04:27:20;;;;;;;7.90;2.40;;;435.40;2099.20;;;;;;4919576;29;20114;-77
2021/09/06 04:29:46;;;;;;;7.07;2.50;;;435.40;2099.20;;;;;;4918006;29;20090;-90
2021/09/06 04:32:12;;;;;;;6.72;2.97;;;435.30;2099.20;;;;;;4934910;29;20457;-89
2021/09/06 04:34:37;;;;;;;4.85;2.42;;;435.30;2124.80;;;;;;4918443;29;20029;-91
2021/09/06 04:37:04;;;;;;;5.90;2.50;;;435.40;2099.20;;;;;;4935012;29;20031;-91
2021/09/06 04:39:30;;;;;;;9.50;2.53;;;435.40;2124.80;;;;;;4918305;29;20059;-92
2021/09/06 04:41:56;;;;;;;6.40;2.90;;;435.30;2124.80;;;;;;4917864;29;20138;-93
2021/09/06 04:44:22;;;;;;;6.78;3.17;;;435.30;2124.80;;;;;;4918464;29;20042;-77
2021/09/06 04:46:47;;;;;;;8.15;2.97;;;435.30;2150.40;;;;;;4918033;29;20474;-92
2021/09/06 04:49:13;;;;;;;7.35;3.78;;;435.30;2150.40;;;;;;4912742;29;20028;-92
2021/09/06 04:51:39;;;;;;;12.13;3.28;;;435.30;2150.40;;;;;;4927566;29;20390;-92
2021/09/06 04:54:05;;;;;;;8.80;3.30;;;435.30;2150.40;;;;;;4918185;29;20079;-77
2021/09/06 04:56:30;;;;;;;8.20;3.58;;;435.40;2150.40;;;;;;4918181;29;20152;-92
2021/09/06 04:58:56;;;;;;;7.57;3.50;;;435.30;2176.00;;;;;;4934723;29;20026;-77
2021/09/06 05:01:22;;;;;;;7.80;3.47;;;435.30;2176.00;;;;;;4917793;29;20569;-92
2021/09/06 05:03:47;;;;;;;9.73;3.50;;;435.30;2176.00;;;;;;4937771;29;20031;-77
2021/09/06 05:06:13;;;;;;;9.73;3.65;;;435.40;2201.60;;;;;;4921334;29;20477;-86
2021/09/06 05:08:39;;;;;;;9.35;3.53;;;435.50;2176.00;;;;;;4909948;29;20020;-86
2021/09/06 05:11:05;;;;;;;13.07;3.95;;;435.50;2201.60;;;;;;4936113;29;20051;-92
2021/09/06 05:13:30;;;;;;;8.30;3.53;;;435.60;2201.60;;;;;;4938045;29;20032;-88
2021/09/06 05:15:57;;;;;;;10.45;3.88;;;435.60;2201.60;;;;;;4937023;29;20474;-92
2021/09/06 05:18:23;;;;;;;8.80;3.67;;;435.70;2176.00;;;;;;4934390;29;20024;-90
2021/09/06 05:20:50;;;;;;;10.48;3.75;;;435.80;2176.00;;;;;;4902413;29;20047;-89
2021/09/06 05:23:16;;;;;;;8.52;3.85;;;435.80;2201.60;;;;;;4920522;29;20024;-85
2021/09/06 05:25:42;;;;;;;9.38;3.60;;;435.90;2201.60;;;;;;4936582;29;20127;-83
2021/09/06 05:28:08;;;;;;;11.80;4.65;;;436.00;2201.60;;;;;;4937779;29;20102;-75
2021/09/06 05:30:34;;;;;;;12.60;3.80;;;436.10;2201.60;;;;;;4937794;29;20090;-86
2021/09/06 05:33:00;;;;;;;15.63;4.05;;;436.10;2227.20;;;;;;4921012;29;20115;-84
2021/09/06 05:35:26;;;;;;;11.35;3.75;;;460.80;2252.80;;;;;;4937955;29;20099;-89
2021/09/06 05:37:52;;;;;;;9.77;4.05;;;460.80;2252.80;;;;;;4938083;29;20032;-84
2021/09/06 05:40:18;;;;;;;9.80;3.75;;;460.90;2252.80;;;;;;4921026;29;20127;-88
2021/09/06 05:42:44;;;;;;;10.98;4.20;;;461.00;2252.80;;;;;;4920903;29;20090;-82
2021/09/06 05:45:10;;;;;;;15.18;4.28;;;461.10;2227.20;;;;;;4936722;29;20024;-83
2021/09/06 05:47:36;;;;;;;15.05;4.65;;;461.30;2252.80;;;;;;4917880;29;20058;-78
2021/09/06 05:50:02;;;;;;;11.82;5.50;;;461.40;2252.80;;;;;;4932376;29;20020;-76
2021/09/06 05:52:27;;;;;;;16.00;6.65;;;461.40;2252.80;;;;;;4931569;29;20036;-78
2021/09/06 05:54:53;;;;;;;17.90;8.25;;;461.60;2227.20;;;;;;4894533;29;20047;-83
2021/09/06 05:57:19;;;;;;;17.80;6.82;;;461.70;2227.20;;;;;;4910940;29;20087;-84
2021/09/06 05:59:44;;;;;;;12.73;6.20;;;486.40;2227.20;;;;;;4917922;29;20025;-84
2021/09/06 06:02:10;;;;;;;15.57;6.22;;;486.60;2227.20;;;;;;4914181;29;20387;-85
2021/09/06 06:04:36;;;;;;;18.40;5.90;;;486.70;2227.20;;;;;;4901652;29;20024;-88
2021/09/06 06:07:02;;;;;;;11.63;6.10;;;486.70;2252.80;;;;;;4907202;29;20510;-87
2021/09/06 06:09:27;;;;;;;10.18;6.43;;;486.80;2227.20;;;;;;4911555;29;20040;-77
2021/09/06 06:11:53;;;;;;;8.07;4.88;;;487.00;2176.00;;;;;;4914704;29;20048;-81
2021/09/06 06:14:19;;;;;;;14.63;5.90;;;487.10;2201.60;;;;;;4929417;29;20028;-85
2021/09/06 06:16:45;;;;;;;13.05;5.55;;;487.20;2201.60;;;;;;4924754;29;20051;-86
2021/09/06 06:19:11;;;;;;;9.20;5.90;;;487.30;2150.40;;;;;;4908801;29;20092;-79
2021/09/06 06:21:37;;;;;;;9.90;5.25;;;512.00;2124.80;;;;;;4902697;29;20044;-76
2021/09/06 06:24:03;;;;;;;11.30;6.22;;;512.10;2124.80;;;;;;4936365;29;20074;-81
2021/09/06 06:26:29;;;;;;;234.32;120.80;;;512.10;2073.60;;;;;;4922736;29;20126;-83
2021/09/06 06:28:56;;;;;;;156.13;82.85;;;512.30;2099.20;;;;;;4923871;29;20465;-78
2021/09/06 06:31:22;;;;;;;55.88;29.02;;;512.30;2099.20;;;;;;4919352;29;20036;-80
2021/09/06 06:33:47;;;;;;;57.95;22.45;;;512.30;2124.80;;;;;;4922911;29;20024;-86
2021/09/06 06:36:13;;;;;;;13.57;6.65;;;512.50;2073.60;;;;;;4936437;29;20545;-89
2021/09/06 06:38:40;;;;;;;13.32;6.85;;;512.70;2022.40;;;;;;4904264;29;20426;-81
2021/09/06 06:41:06;;;;;;;18.33;7.47;;;512.70;2022.40;;;;;;4888012;29;20060;-84
2021/09/06 06:43:32;;;;;;;16.42;6.00;;;512.70;1996.80;;;;;;4907098;29;20020;-77
2021/09/06 06:45:58;;;;;;;14.75;8.82;;;512.80;1971.20;;;;;;4909237;29;20096;-87
2021/09/06 06:48:23;;;;;;;32.58;15.18;;;512.80;1996.80;;;;;;4907804;29;20026;-77
2021/09/06 06:50:49;;;;;;;27.45;14.75;;;512.80;1996.80;;;;;;4907260;29;20100;-82
2021/09/06 06:53:16;;;;;;;16.25;8.38;;;512.90;1996.80;;;;;;4906447;29;20024;-83
2021/09/06 06:55:42;;;;;;;20.73;11.23;;;537.70;1996.80;;;;;;4908242;29;20024;-81
2021/09/06 06:58:08;;;;;;;17.45;10.15;;;537.70;2022.40;;;;;;4907983;29;20092;-77
2021/09/06 07:00:33;;;;;;;32.75;14.02;;;537.80;1971.20;;;;;;4888066;29;20384;-81
2021/09/06 07:02:59;;;;;;;11.18;7.00;;;537.80;1971.20;;;;;;4906077;29;20567;-81
2021/09/06 07:05:25;;;;;;;20.67;8.07;;;537.70;1971.20;;;;;;4892019;29;20459;-82
2021/09/06 07:07:51;;;;;;;17.17;6.95;;;537.90;1996.80;;;;;;4919752;29;20078;-84
2021/09/06 07:10:17;;;;;;;15.95;7.07;;;538.10;1894.40;;;;;;4917840;29;20036;-84
2021/09/06 07:12:43;;;;;;;11.30;5.63;;;538.10;1894.40;;;;;;4914322;29;20028;-82
2021/09/06 07:15:10;;;;;;;18.15;7.75;;;538.30;1894.40;;;;;;4916429;29;20546;-80
2021/09/06 07:17:36;;;;;;;21.98;6.07;;;538.20;1894.40;;;;;;4911501;29;20040;-80
2021/09/06 07:20:03;;;;;;;89.70;46.03;;;538.20;1868.80;;;;;;4906352;29;20113;-81
2021/09/06 07:22:29;;;;;;;98.95;51.45;;;538.30;1868.80;;;;;;4906836;29;20032;-81
2021/09/06 07:24:54;;;;;;;46.40;24.05;;;538.40;1868.80;;;;;;4906373;29;20028;-81
2021/09/06 07:27:21;;;;;;;77.20;41.40;;;538.30;1868.80;;;;;;4907132;29;20467;-81
2021/09/06 07:29:47;;;;;;;36.53;14.43;;;538.50;1868.80;;;;;;4905746;29;20039;-81
2021/09/06 07:32:13;;;;;;;23.95;11.98;;;563.20;1868.80;;;;;;4889164;29;20391;-78
2021/09/06 07:34:39;;;;;;;27.17;10.68;;;563.40;1868.80;;;;;;4907604;29;20043;-82
2021/09/06 07:37:06;;;;;;;19.80;11.40;;;563.50;1894.40;;;;;;4916445;29;20024;-82
2021/09/06 07:39:33;;;;;;;14.05;6.25;;;563.60;1868.80;;;;;;4899106;29;20111;-78
2021/09/06 07:41:59;;;;;;;10.77;6.55;;;563.70;1868.80;;;;;;4916274;29;20084;-81
2021/09/06 07:44:26;;;;;;;9.10;5.25;;;563.90;1792.00;;;;;;4899380;29;20109;-82
2021/09/06 07:46:52;;;;;;;14.70;6.55;;;563.90;1792.00;;;;;;4907267;29;20020;-81
2021/09/06 07:49:19;;;;;;;22.17;5.43;;;563.70;1792.00;;;;;;4890840;29;20036;-80
2021/09/06 07:51:51;;;;;;;12.60;6.65;;;563.60;1817.60;;;;;;4906384;29;20510;-77
2021/09/06 07:54:21;;;;;;;17.25;5.35;;;563.60;1792.00;;;;;;4905664;29;20083;-81
2021/09/06 07:56:48;;;;;;;11.50;6.60;;;563.70;1792.00;;;;;;4889268;29;20051;-81
2021/09/06 07:59:15;;;;;;;17.42;9.05;;;564.00;1792.00;;;;;;4907213;29;20016;-81
2021/09/06 08:01:41;;;;;;;15.70;7.68;;;563.90;1792.00;;;;;;4889204;29;20044;-83
2021/09/06 08:04:07;;;;;;;12.23;6.15;;;563.90;1792.00;;;;;;4910209;29;20024;-83
2021/09/06 08:06:33;;;;;;;10.10;5.90;;;564.10;1792.00;;;;;;4911867;29;20164;-81
2021/09/06 08:08:59;;;;;;;12.68;5.60;;;564.00;1766.40;;;;;;4911078;29;20028;-82
2021/09/06 08:11:25;;;;;;;8.65;5.72;;;588.80;1792.00;;;;;;4915690;29;20051;-81
2021/09/06 08:13:51;;;;;;;9.57;4.60;;;588.80;1766.40;;;;;;4916273;29;20024;-80
2021/09/06 08:16:16;;;;;;;8.95;4.60;;;588.90;1740.80;;;;;;4907347;29;20397;-81
2021/09/06 08:18:42;;;;;;;12.85;5.22;;;588.90;1766.40;;;;;;4916096;29;20478;-79
2021/09/06 08:21:09;;;;;;;230.10;123.90;;;588.90;1766.40;;;;;;4910951;29;20050;-79
2021/09/06 08:23:34;;;;;;;307.27;135.55;;;588.90;1766.40;;;;;;4917801;29;20024;-79
2021/09/06 08:26:00;;;;;;;160.32;65.13;;;589.00;1715.20;;;;;;4934726;29;20360;-80
2021/09/06 08:28:26;;;;;;;62.03;29.65;;;588.80;1740.80;;;;;;4934802;29;20117;-80
2021/09/06 08:30:52;;;;;;;17.15;7.93;;;588.80;1740.80;;;;;;4920070;29;20035;-79
2021/09/06 08:33:18;;;;;;;19.25;8.25;;;588.90;1740.80;;;;;;4904625;29;20025;-80
2021/09/06 08:35:46;;;;;;;15.75;7.50;;;589.00;1740.80;;;;;;4905082;29;20031;-78
2021/09/06 08:38:12;;;;;;;17.13;4.75;;;589.20;1740.80;;;;;;4912906;29;20020;-81
2021/09/06 08:40:38;;;;;;;19.60;6.97;;;589.30;1715.20;;;;;;4918872;29;20076;-80
2021/09/06 08:43:06;;;;;;;13.57;7.70;;;589.20;1715.20;;;;;;4908584;29;20037;-81
2021/09/06 08:45:33;;;;;;;10.45;6.20;;;589.20;1715.20;;;;;;4894920;29;20031;-80
2021/09/06 08:47:59;;;;;;;15.77;5.53;;;589.00;1740.80;;;;;;4891524;29;20021;-80
2021/09/06 08:50:25;;;;;;;10.23;6.32;;;589.00;1766.40;;;;;;4893551;29;20501;-80
2021/09/06 08:52:51;;;;;;;8.10;5.22;;;589.30;1766.40;;;;;;4908167;29;20036;-81
2021/09/06 08:55:17;;;;;;;10.02;5.50;;;589.30;1715.20;;;;;;4910744;29;20024;-84
2021/09/06 08:57:42;;;;;;;11.27;5.60;;;589.30;1766.40;;;;;;4917031;29;20476;-84
2021/09/06 09:00:10;;;;;;;11.88;5.70;;;589.40;1740.80;;;;;;4922479;29;20026;-85
2021/09/06 09:02:37;;;;;;;9.02;5.45;;;589.60;1740.80;;;;;;4920787;29;20029;-83
2021/09/06 09:05:08;;;;;;;10.43;6.18;;;589.70;1766.40;;;;;;4919135;29;20020;-84
2021/09/06 09:07:35;;;;;;;10.52;4.90;;;614.40;1792.00;;;;;;4902332;29;20021;-79
2021/09/06 09:10:04;;;;;;;13.63;5.50;;;589.70;1689.60;;;;;;4920316;29;20024;-86
2021/09/06 09:12:30;;;;;;;10.32;5.93;;;589.60;1766.40;;;;;;4923559;29;20143;-84
2021/09/06 09:14:59;;;;;;;13.10;5.65;;;589.70;1740.80;;;;;;4900026;29;20056;-82
2021/09/06 09:17:26;;;;;;;9.05;6.18;;;614.50;1715.20;;;;;;4911055;29;20031;-86
2021/09/06 09:19:52;;;;;;;10.82;6.50;;;614.50;1715.20;;;;;;4917144;29;20044;-77
2021/09/06 09:22:28;;;;;;;12.15;7.22;;;614.50;1689.60;;;;;;4903788;29;20036;-82
2021/09/06 09:24:59;;;;;;;10.88;5.95;;;614.50;1689.60;;;;;;4910856;29;20099;-84
2021/09/06 09:27:32;;;;;;;12.50;6.05;;;614.40;1689.60;;;;;;4932803;29;20502;-86
2021/09/06 09:29:59;;;;;;;12.73;5.95;;;614.70;1689.60;;;;;;4923178;29;20024;-77
2021/09/06 09:32:25;;;;;;;13.18;5.70;;;614.60;1664.00;;;;;;4919628;29;20040;-86
2021/09/06 09:34:51;;;;;;;10.32;5.78;;;614.60;1715.20;;;;;;4924972;29;20087;-84
2021/09/06 09:37:25;;;;;;;11.02;4.93;;;614.80;1715.20;;;;;;4901983;29;20043;-79
2021/09/06 09:39:56;;;;;;;13.95;6.35;;;614.80;1664.00;;;;;;4908971;29;20459;-84
2021/09/06 09:42:22;;;;;;;10.60;5.90;;;615.00;1664.00;;;;;;4910453;29;20047;-86
2021/09/06 09:44:56;;;;;;;10.07;5.63;;;614.90;1638.40;;;;;;4908835;29;20059;-86
2021/09/06 09:47:25;;;;;;;11.20;5.68;;;614.90;1689.60;;;;;;4890677;29;20430;-85
2021/09/06 09:49:53;;;;;;;9.70;5.45;;;615.20;1638.40;;;;;;4908603;29;20035;-85
2021/09/06 09:52:20;;;;;;;12.20;5.72;;;615.00;1664.00;;;;;;4890981;29;21528;-83
2021/09/06 09:54:48;;;;;;;8.77;5.55;;;615.30;1664.00;;;;;;4910040;29;20024;-84
2021/09/06 09:57:14;;;;;;;7.70;5.43;;;640.10;1664.00;;;;;;4911825;29;20028;-77
2021/09/06 09:59:41;;;;;;;7.50;5.38;;;640.40;1638.40;;;;;;4900123;29;20058;-88
2021/09/06 10:02:13;;;;;;;10.35;5.82;;;640.50;1561.60;;;;;;4908735;29;20052;-85
2021/09/06 10:04:54;;;;;;;9.88;6.60;;;640.60;1536.00;;;;;;4906830;29;20016;-86
2021/09/06 10:07:22;;;;;;;8.13;5.50;;;640.70;1561.60;;;;;;4913298;29;20028;-84
2021/09/06 10:09:49;;;;;;;9.20;5.80;;;640.50;1587.20;;;;;;4918071;29;20027;-81
2021/09/06 10:12:23;;;;;;;10.63;5.78;;;640.60;1612.80;;;;;;4901300;29;20056;-84
2021/09/06 10:14:50;;;;;;;7.53;5.07;;;640.70;1561.60;;;;;;4917900;29;20028;-79
2021/09/06 10:17:16;;;;;;;9.20;5.72;;;640.50;1536.00;;;;;;4905161;29;20557;-81
2021/09/06 10:19:43;;;;;;;9.50;5.15;;;640.70;1510.40;;;;;;4917984;29;20056;-78
2021/09/06 10:22:29;;;;;;;8.73;5.70;;;665.60;1561.60;;;;;;4918032;29;20048;-79
2021/09/06 10:25:00;;;;;;;;;;;665.90;1561.60;;;;;;4936546;29;20035;-79
2021/09/06 10:27:27;;;;;;;11.88;5.45;;;666.00;1510.40;;;;;;4936035;29;19907;-77
2021/09/06 10:30:08;;;;;;;12.27;5.15;;;666.10;1536.00;;;;;;4935746;29;20103;-79
2021/09/06 10:32:42;;;;;;;13.23;5.95;;;666.30;1459.20;;;;;;4935938;29;20039;-79
2021/09/06 10:35:19;;;;;;;11.80;5.32;;;666.50;1433.60;;;;;;4935821;29;20478;-80
2021/09/06 10:37:47;;;;;;;10.45;5.53;;;691.20;1484.80;;;;;;4924056;29;20506;-80
2021/09/06 10:40:26;;;;;;;10.95;5.03;;;691.30;1484.80;;;;;;4890375;29;20483;-81
2021/09/06 10:42:51;;;;;;;10.50;5.72;;;666.50;1484.80;;;;;;4913726;29;20542;-80
2021/09/06 10:45:18;;;;;;;7.95;5.38;;;666.50;1484.80;;;;;;4908078;29;20112;-81
2021/09/06 10:47:43;;;;;;;9.07;5.10;;;666.20;1459.20;;;;;;4907846;29;20024;-88
2021/09/06 10:50:20;;;;;;;12.13;5.28;;;666.00;1484.80;;;;;;4909074;29;20046;-84
2021/09/06 10:52:49;;;;;;;10.45;5.25;;;666.50;1510.40;;;;;;4907835;29;20048;-80
2021/09/06 10:55:16;;;;;;;16.95;5.55;;;691.20;1484.80;;;;;;4889328;29;20020;-82
2021/09/06 10:57:44;;;;;;;9.60;5.53;;;691.30;1459.20;;;;;;4908039;29;20450;-81
2021/09/06 11:00:15;;;;;;;10.75;5.78;;;691.30;1484.80;;;;;;4904824;29;20020;-81
2021/09/06 11:02:42;;;;;;;10.27;6.03;;;691.40;1484.80;;;;;;4907691;29;20040;-77
2021/09/06 11:05:15;;;;;;;11.60;6.13;;;691.70;1408.00;;;;;;4906594;29;20024;-79
2021/09/06 11:07:41;;;;;;;8.15;5.22;;;691.60;1433.60;;;;;;4904630;29;20028;-79
2021/09/06 11:10:12;;;;;;;14.68;5.78;;;691.30;1459.20;;;;;;4907601;29;20028;-82
2021/09/06 11:12:39;;;;;;;11.68;5.38;;;691.50;1459.20;;;;;;4907013;29;20059;-78
2021/09/06 11:15:06;;;;;;;13.35;5.78;;;691.70;1433.60;;;;;;4907823;29;20028;-81
2021/09/06 11:17:31;;;;;;;7.50;5.30;;;691.70;1433.60;;;;;;4903973;29;20028;-78
2021/09/06 11:19:58;;;;;;;7.75;5.07;;;691.80;1408.00;;;;;;4906671;29;20091;-80
2021/09/06 11:22:27;;;;;;;9.10;5.60;;;692.10;1408.00;;;;;;4905759;29;20548;-80
2021/09/06 11:24:58;;;;;;;14.65;5.50;;;716.90;1433.60;;;;;;4888304;29;20024;-80
2021/09/06 11:27:25;;;;;;;9.30;5.15;;;716.90;1433.60;;;;;;4889422;29;20047;-81
2021/09/06 11:29:51;;;;;;;12.45;5.10;;;717.10;1382.40;;;;;;4906907;29;20025;-82
2021/09/06 11:32:16;;;;;;;8.50;5.47;;;717.00;1382.40;;;;;;4894066;29;20557;-83
2021/09/06 11:34:42;;;;;;;8.32;4.88;;;716.80;1356.80;;;;;;4909255;29;20386;-83
2021/09/06 11:37:08;;;;;;;11.27;5.15;;;717.30;1331.20;;;;;;4906904;29;20040;-82
2021/09/06 11:39:35;;;;;;;9.68;5.43;;;692.10;1356.80;;;;;;4907043;29;20107;-82
2021/09/06 11:42:02;;;;;;;11.63;5.55;;;692.00;1382.40;;;;;;4889405;29;20052;-83
2021/09/06 11:44:29;;;;;;;10.23;6.35;;;716.80;1408.00;;;;;;4906033;29;20091;-83
2021/09/06 11:46:55;;;;;;;14.85;6.53;;;716.90;1382.40;;;;;;4890050;29;20036;-79
2021/09/06 11:49:21;;;;;;;10.25;5.93;;;691.90;1382.40;;;;;;4906707;29;20027;-79
2021/09/06 11:51:46;;;;;;;7.72;5.53;;;691.70;1356.80;;;;;;4906060;29;20032;-80
2021/09/06 11:54:13;;;;;;;11.40;5.18;;;691.50;1382.40;;;;;;4891216;29;20040;-81
2021/09/06 11:56:40;;;;;;;12.80;5.70;;;691.20;1433.60;;;;;;4912162;29;20047;-79
2021/09/06 11:59:05;;;;;;;10.35;5.90;;;691.20;1433.60;;;;;;4904695;29;20025;-78
2021/09/06 12:01:35;;;;;;;13.65;6.15;;;691.50;1382.40;;;;;;4906636;29;20126;-79
2021/09/06 12:04:06;;;;;;;22.88;5.78;;;692.00;1356.80;;;;;;4907474;29;20486;-80
2021/09/06 12:06:32;;;;;;;9.77;5.38;;;717.10;1356.80;;;;;;4903795;29;20027;-79
2021/09/06 12:08:59;;;;;;;10.40;5.40;;;717.50;1331.20;;;;;;4902720;29;20032;-81
2021/09/06 12:11:35;;;;;;;10.02;5.45;;;717.30;1356.80;;;;;;4903102;29;20068;-79